createdAt,value
2019-04-27T00:00:55.372Z,75.60
2019-04-27T00:03:41.479Z,75.40
2019-04-27T00:06:10.501Z,75.00
2019-04-27T00:08:45.713Z,74.70
2019-04-27T00:11:17.572Z,75.10
2019-04-27T00:13:45.888Z,75.50
2019-04-27T00:16:15.068Z,75.90
2019-04-27T00:18:56.436Z,77.00
2019-04-27T00:21:24.109Z,77.30
2019-04-27T00:23:53.102Z,78.50
2019-04-27T00:26:20.767Z,78.10
2019-04-27T00:28:48.305Z,77.90
2019-04-27T00:31:15.849Z,77.30
2019-04-27T00:33:43.561Z,76.50
2019-04-27T00:36:13.129Z,77.10
2019-04-27T00:38:45.243Z,76.70
2019-04-27T00:41:14.432Z,76.30
2019-04-27T00:43:42.732Z,76.10
2019-04-27T00:46:11.236Z,76.40
2019-04-27T00:48:38.785Z,76.70
2019-04-27T00:51:06.340Z,76.50
2019-04-27T00:53:33.878Z,76.10
2019-04-27T00:56:13.995Z,77.90
2019-04-27T00:58:55.234Z,77.20
2019-04-27T01:01:24.409Z,76.50
2019-04-27T01:03:55.197Z,77.10
2019-04-27T01:06:23.400Z,76.80
2019-04-27T01:08:51.547Z,76.40
2019-04-27T01:11:20.675Z,77.10
2019-04-27T01:13:48.220Z,76.30
2019-04-27T01:16:21.554Z,76.50
2019-04-27T01:18:45.185Z,76.70
2019-04-27T01:21:12.728Z,77.50
2019-04-27T01:23:40.277Z,77.30
2019-04-27T01:26:09.831Z,77.80
2019-04-27T01:28:39.060Z,78.50
2019-04-27T01:31:09.243Z,78.40
2019-04-27T01:33:38.822Z,77.20
2019-04-27T01:36:06.292Z,77.10
2019-04-27T01:38:33.821Z,77.10
2019-04-27T01:41:01.372Z,77.40
2019-04-27T01:43:30.192Z,77.10
2019-04-27T01:45:58.754Z,77.10
2019-04-27T01:48:28.267Z,76.90
2019-04-27T01:50:57.004Z,76.40
2019-04-27T01:53:24.541Z,76.50
2019-04-27T01:55:52.092Z,76.90
2019-04-27T01:58:20.177Z,77.00
2019-04-27T02:01:06.133Z,77.00
2019-04-27T02:03:35.308Z,76.80
2019-04-27T02:06:02.857Z,77.60
2019-04-27T02:08:30.388Z,76.50
2019-04-27T02:10:59.465Z,77.20
2019-04-27T02:13:28.905Z,76.90
2019-04-27T02:15:56.411Z,76.80
2019-04-27T02:18:34.687Z,76.80
2019-04-27T02:20:53.604Z,77.20
2019-04-27T02:23:21.140Z,76.60
2019-04-27T02:25:49.688Z,76.70
2019-04-27T02:28:29.431Z,77.00
2019-04-27T02:31:02.100Z,76.40
2019-04-27T02:33:31.432Z,76.60
2019-04-27T02:36:00.282Z,76.50
2019-04-27T02:38:30.523Z,76.80
2019-04-27T02:40:59.849Z,77.70
2019-04-27T02:43:29.646Z,77.70
2019-04-27T02:45:57.436Z,77.30
2019-04-27T02:48:24.975Z,77.20
2019-04-27T02:50:56.873Z,77.30
2019-04-27T02:53:42.404Z,77.50
2019-04-27T02:56:10.380Z,77.90
2019-04-27T02:58:40.480Z,77.60
2019-04-27T03:01:09.970Z,77.90
2019-04-27T03:03:37.417Z,77.50
2019-04-27T03:06:05.010Z,77.80
2019-04-27T03:08:32.544Z,77.80
2019-04-27T03:11:01.191Z,78.00
2019-04-27T03:13:30.568Z,77.60
2019-04-27T03:16:14.699Z,77.60
2019-04-27T03:19:09.792Z,77.80
2019-04-27T03:21:26.360Z,78.20
2019-04-27T03:23:53.892Z,78.50
2019-04-27T03:26:23.077Z,77.60
2019-04-27T03:28:50.633Z,78.30
2019-04-27T03:31:21.599Z,77.60
2019-04-27T03:33:51.399Z,77.50
2019-04-27T03:36:21.154Z,76.80
2019-04-27T03:38:45.973Z,77.00
2019-04-27T03:41:13.823Z,76.60
2019-04-27T03:43:41.358Z,76.90
2019-04-27T03:46:10.341Z,76.60
2019-04-27T03:48:40.611Z,76.80
2019-04-27T03:54:22.294Z,76.80
2019-04-27T03:56:51.672Z,76.10
2019-04-27T03:59:20.841Z,76.40
2019-04-27T04:01:50.525Z,76.40
2019-04-27T04:04:19.544Z,75.70
2019-04-27T04:06:49.246Z,76.00
2019-04-27T04:09:16.487Z,75.90
2019-04-27T04:11:49.141Z,75.60
2019-04-27T04:14:24.237Z,75.60
2019-04-27T04:16:53.432Z,75.70
2019-04-27T04:19:21.037Z,76.20
2019-04-27T04:21:50.368Z,76.00
2019-04-27T04:24:19.960Z,76.70
2019-04-27T04:26:49.991Z,76.30
2019-04-27T04:29:16.685Z,75.90
2019-04-27T04:31:44.217Z,76.10
2019-04-27T04:34:12.427Z,76.30
2019-04-27T04:36:42.584Z,76.70
2019-04-27T04:39:10.404Z,76.80
2019-04-27T04:41:43.509Z,76.40
2019-04-27T04:44:26.269Z,77.00
2019-04-27T04:46:55.444Z,76.50
2019-04-27T04:49:22.995Z,76.30
2019-04-27T04:51:50.554Z,77.00
2019-04-27T04:54:20.235Z,77.00
2019-04-27T04:56:49.287Z,76.80
2019-04-27T04:59:16.612Z,76.30
2019-04-27T05:01:44.144Z,76.50
2019-04-27T05:04:11.692Z,77.30
2019-04-27T05:06:39.229Z,77.70
2019-04-27T05:09:06.889Z,79.30
2019-04-27T05:11:34.423Z,76.90
2019-04-27T05:14:01.968Z,77.80
2019-04-27T05:16:29.502Z,77.80
2019-04-27T05:18:57.043Z,77.80
2019-04-27T05:21:29.837Z,77.50
2019-04-27T05:23:58.636Z,78.30
2019-04-27T05:26:29.375Z,77.20
2019-04-27T05:28:59.130Z,76.80
2019-04-27T05:31:26.402Z,76.80
2019-04-27T05:33:53.955Z,76.50
2019-04-27T05:36:21.482Z,76.90
2019-04-27T05:38:49.824Z,76.70
2019-04-27T05:41:18.721Z,77.10
2019-04-27T05:43:49.117Z,77.20
2019-04-27T05:46:39.985Z,77.40
2019-04-27T05:49:20.832Z,76.90
2019-04-27T05:51:50.010Z,76.50
2019-04-27T05:54:19.252Z,77.10
2019-04-27T05:56:46.932Z,76.70
2019-04-27T05:59:14.846Z,76.40
2019-04-27T06:01:42.604Z,75.00
2019-04-27T06:04:10.166Z,74.20
2019-04-27T06:06:39.698Z,76.10
2019-04-27T06:09:06.983Z,76.40
2019-04-27T06:11:34.537Z,75.30
2019-04-27T06:14:02.097Z,74.40
2019-04-27T06:16:29.636Z,75.00
2019-04-27T06:18:57.176Z,75.00
2019-04-27T06:21:24.718Z,75.20
2019-04-27T06:23:52.267Z,74.50
2019-04-27T06:26:20.231Z,74.20
2019-04-27T06:28:47.937Z,74.20
2019-04-27T06:31:15.488Z,74.40
2019-04-27T06:33:43.117Z,75.10
2019-04-27T06:36:10.654Z,74.50
2019-04-27T06:38:39.323Z,73.10
2019-04-27T06:41:07.192Z,72.70
2019-04-27T06:43:34.726Z,73.20
2019-04-27T06:46:02.285Z,74.20
2019-04-27T06:48:29.827Z,74.00
2019-04-27T06:51:03.573Z,74.10
2019-04-27T06:53:26.630Z,73.30
2019-04-27T06:55:54.183Z,73.60
2019-04-27T06:58:21.712Z,73.90
2019-04-27T07:00:49.721Z,72.70
2019-04-27T07:03:18.874Z,73.50
2019-04-27T07:05:46.697Z,73.70
2019-04-27T07:08:14.232Z,73.20
2019-04-27T07:10:41.784Z,74.20
2019-04-27T07:13:09.690Z,72.00
2019-04-27T07:15:38.748Z,71.40
2019-04-27T07:18:06.464Z,73.70
2019-04-27T07:20:34.012Z,73.00
2019-04-27T07:23:01.552Z,73.40
2019-04-27T07:25:29.119Z,73.30
2019-04-27T07:27:56.656Z,73.90
2019-04-27T07:30:24.252Z,74.10
2019-04-27T07:32:51.818Z,74.00
2019-04-27T07:35:19.761Z,74.30
2019-04-27T07:37:48.835Z,74.00
2019-04-27T07:40:16.485Z,74.50
2019-04-27T07:42:46.121Z,75.10
2019-04-27T07:45:19.540Z,74.60
2019-04-27T07:47:49.340Z,74.00
2019-04-27T07:50:17.052Z,71.80
2019-04-27T07:52:44.601Z,70.50
2019-04-27T07:55:12.138Z,71.00
2019-04-27T07:57:40.083Z,69.10
2019-04-27T08:00:09.373Z,68.60
2019-04-27T08:02:38.887Z,68.00
2019-04-27T08:05:06.313Z,67.50
2019-04-27T08:07:33.850Z,67.60
2019-04-27T08:10:01.866Z,66.40
2019-04-27T08:12:29.540Z,65.40
2019-04-27T08:14:57.088Z,65.90
2019-04-27T08:17:24.948Z,64.40
2019-04-27T08:19:52.540Z,63.20
2019-04-27T08:22:20.083Z,61.70
2019-04-27T08:24:49.407Z,62.40
2019-04-27T08:27:30.741Z,62.80
2019-04-27T08:30:02.784Z,62.70
2019-04-27T08:32:31.943Z,63.10
2019-04-27T08:34:59.571Z,66.30
2019-04-27T08:37:28.640Z,66.50
2019-04-27T08:39:56.332Z,66.50
2019-04-27T08:42:23.884Z,66.20
2019-04-27T08:44:51.428Z,66.40
2019-04-27T08:47:19.523Z,66.30
2019-04-27T08:49:49.008Z,66.90
2019-04-27T08:52:16.788Z,67.20
2019-04-27T08:54:44.341Z,67.90
2019-04-27T08:57:11.876Z,69.30
2019-04-27T08:59:39.773Z,68.80
2019-04-27T09:02:08.785Z,69.60
2019-04-27T09:04:36.571Z,71.20
2019-04-27T09:07:21.864Z,73.10
2019-04-27T09:09:57.129Z,76.20
2019-04-27T09:12:44.609Z,73.40
2019-04-27T09:15:25.811Z,73.80
2019-04-27T09:20:49.184Z,70.40
2019-04-27T09:23:18.626Z,68.60
2019-04-27T09:25:46.079Z,68.10
2019-04-27T09:28:13.633Z,67.90
2019-04-27T09:30:41.256Z,67.90
2019-04-27T09:33:08.822Z,65.90
2019-04-27T09:35:36.448Z,66.70
2019-04-27T09:38:03.986Z,63.90
2019-04-27T09:40:31.537Z,65.90
2019-04-27T09:42:59.088Z,67.50
2019-04-27T09:45:27.199Z,67.10
2019-04-27T09:47:56.279Z,65.70
2019-04-27T09:50:28.018Z,63.30
2019-04-27T09:52:55.584Z,64.50
2019-04-27T09:55:23.112Z,65.60
2019-04-27T09:57:50.761Z,65.10
2019-04-27T10:00:18.324Z,64.10
2019-04-27T10:02:46.565Z,65.70
2019-04-27T10:05:17.176Z,64.00
2019-04-27T10:07:46.014Z,65.90
2019-04-27T10:10:15.686Z,64.70
2019-04-27T10:12:43.432Z,65.00
2019-04-27T10:15:10.984Z,63.70
2019-04-27T10:17:38.521Z,62.50
2019-04-27T10:20:06.127Z,62.80
2019-04-27T10:22:41.093Z,64.70
2019-04-27T10:25:04.013Z,64.30
2019-04-27T10:27:31.556Z,63.80
2019-04-27T10:29:59.124Z,62.90
2019-04-27T10:32:26.661Z,64.00
2019-04-27T10:34:54.212Z,63.90
2019-04-27T10:37:22.012Z,63.90
2019-04-27T10:39:49.560Z,64.30
2019-04-27T10:42:17.101Z,64.90
2019-04-27T10:44:46.216Z,64.20
2019-04-27T10:47:15.682Z,63.60
2019-04-27T10:49:43.467Z,62.90
2019-04-27T10:52:11.008Z,64.80
2019-04-27T10:54:38.660Z,65.00
2019-04-27T10:57:06.233Z,65.70
2019-04-27T10:59:33.829Z,65.70
2019-04-27T11:02:01.718Z,64.70
2019-04-27T11:04:33.854Z,65.30
2019-04-27T11:07:03.034Z,66.20
2019-04-27T11:09:30.576Z,63.50
2019-04-27T11:11:58.131Z,64.40
2019-04-27T11:14:26.036Z,64.20
2019-04-27T11:16:55.866Z,63.70
2019-04-27T11:19:23.244Z,63.60
2019-04-27T11:21:50.792Z,63.30
2019-04-27T11:24:18.370Z,64.30
2019-04-27T11:26:46.564Z,63.30
2019-04-27T11:29:14.252Z,62.60
2019-04-27T11:31:41.800Z,59.90
2019-04-27T11:34:09.344Z,58.00
2019-04-27T11:36:38.538Z,57.90
2019-04-27T11:39:08.109Z,57.40
2019-04-27T11:41:35.652Z,57.80
2019-04-27T11:44:03.183Z,58.00
2019-04-27T11:46:30.827Z,58.30
2019-04-27T11:48:58.452Z,58.80
2019-04-27T11:51:26.603Z,58.60
2019-04-27T11:53:54.379Z,58.80
2019-04-27T11:56:21.929Z,57.60
2019-04-27T11:58:49.462Z,58.60
2019-04-27T12:01:17.010Z,58.90
2019-04-27T12:03:44.644Z,58.60
2019-04-27T12:06:12.240Z,58.00
2019-04-27T12:08:39.785Z,57.60
2019-04-27T12:11:07.420Z,58.20
2019-04-27T12:13:35.936Z,58.70
2019-04-27T12:16:03.965Z,59.60
2019-04-27T12:18:31.502Z,60.10
2019-04-27T12:20:59.404Z,59.50
2019-04-27T12:23:33.686Z,59.60
2019-04-27T12:25:56.409Z,60.00
2019-04-27T12:28:27.187Z,59.10
2019-04-27T12:30:59.629Z,59.40
2019-04-27T12:33:27.741Z,59.90
2019-04-27T12:35:56.921Z,61.30
2019-04-27T12:38:26.394Z,60.80
2019-04-27T12:40:53.909Z,61.70
2019-04-27T12:43:21.451Z,62.10
2019-04-27T12:45:48.988Z,63.90
2019-04-27T12:48:16.539Z,62.10
2019-04-27T12:50:44.077Z,60.80
2019-04-27T12:53:22.251Z,59.80
2019-04-27T12:55:57.512Z,60.30
2019-04-27T12:58:29.424Z,60.00
2019-04-27T13:01:07.622Z,59.40
2019-04-27T13:03:36.406Z,59.30
2019-04-27T13:06:04.123Z,58.30
2019-04-27T13:08:31.708Z,58.40
2019-04-27T13:10:59.755Z,58.90
2019-04-27T13:13:27.332Z,59.90
2019-04-27T13:15:56.313Z,81.80
2019-04-27T13:18:25.676Z,64.60
2019-04-27T13:20:53.509Z,59.40
2019-04-27T13:23:21.060Z,58.50
2019-04-27T13:25:48.940Z,58.00
2019-04-27T13:28:18.591Z,58.30
2019-04-27T13:30:47.535Z,59.20
2019-04-27T13:33:17.226Z,58.50
2019-04-27T13:35:44.804Z,58.50
2019-04-27T13:38:12.352Z,59.60
2019-04-27T13:40:41.565Z,58.40
2019-04-27T13:43:19.660Z,57.90
2019-04-27T13:46:05.421Z,58.00
2019-04-27T13:48:51.443Z,58.70
2019-04-27T13:51:32.890Z,58.40
2019-04-27T13:54:00.439Z,57.70
2019-04-27T13:56:27.992Z,56.50
2019-04-27T13:58:58.298Z,56.80
2019-04-27T14:01:25.084Z,57.90
2019-04-27T14:03:52.633Z,58.20
2019-04-27T14:06:20.188Z,58.50
2019-04-27T14:08:47.738Z,58.30
2019-04-27T14:11:15.275Z,59.10
2019-04-27T14:13:42.868Z,58.50
2019-04-27T14:16:10.409Z,59.00
2019-04-27T14:18:38.523Z,56.80
2019-04-27T14:21:06.293Z,57.60
2019-04-27T14:23:33.836Z,57.20
2019-04-27T14:26:01.368Z,56.70
2019-04-27T14:28:29.041Z,55.40
2019-04-27T14:30:56.746Z,56.00
2019-04-27T14:33:24.389Z,56.50
2019-04-27T14:35:51.952Z,56.50
2019-04-27T14:38:19.517Z,58.00
2019-04-27T14:40:47.899Z,58.40
2019-04-27T14:43:16.464Z,59.40
2019-04-27T14:45:43.991Z,66.10
2019-04-27T14:48:12.993Z,71.70
2019-04-27T14:50:40.656Z,77.50
2019-04-27T14:53:08.837Z,81.00
2019-04-27T14:55:36.443Z,82.20
2019-04-27T14:58:04.017Z,85.00
2019-04-27T15:00:31.589Z,83.60
2019-04-27T15:02:59.220Z,85.00
2019-04-27T15:05:26.848Z,85.30
2019-04-27T15:07:54.692Z,86.50
2019-04-27T15:10:22.436Z,85.60
2019-04-27T15:12:49.953Z,90.10
2019-04-27T15:15:17.744Z,88.40
2019-04-27T15:17:45.286Z,90.20
2019-04-27T15:20:22.681Z,89.90
2019-04-27T15:22:56.757Z,88.90
2019-04-27T15:25:20.156Z,90.20
2019-04-27T15:28:01.689Z,87.80
2019-04-27T15:30:35.188Z,89.00
2019-04-27T15:33:20.947Z,87.90
2019-04-27T15:35:58.177Z,87.80
2019-04-27T15:38:39.036Z,87.60
2019-04-27T15:41:08.914Z,88.30
2019-04-27T15:43:38.643Z,89.80
2019-04-27T15:46:08.168Z,88.50
2019-04-27T15:48:35.553Z,89.20
2019-04-27T15:51:09.257Z,87.00
2019-04-27T15:53:33.314Z,86.00
2019-04-27T15:56:01.928Z,85.90
2019-04-27T15:58:29.657Z,90.90
2019-04-27T16:01:00.639Z,92.90
2019-04-27T16:03:27.351Z,93.60
2019-04-27T16:05:55.924Z,86.50
2019-04-27T16:08:23.511Z,90.00
2019-04-27T16:10:51.147Z,84.90
2019-04-27T16:13:18.721Z,89.80
2019-04-27T16:15:48.151Z,86.20
2019-04-27T16:18:15.793Z,80.90
2019-04-27T16:20:43.340Z,80.30
2019-04-27T16:23:10.888Z,79.20
2019-04-27T16:25:47.813Z,77.80
2019-04-27T16:28:11.612Z,76.20
2019-04-27T16:30:39.036Z,74.50
2019-04-27T16:33:06.318Z,72.80
2019-04-27T16:35:34.168Z,70.60
2019-04-27T16:38:19.714Z,60.90
2019-04-27T16:40:47.353Z,61.60
2019-04-27T16:43:15.053Z,64.40
2019-04-27T16:45:42.596Z,61.30
2019-04-27T16:48:10.128Z,65.00
2019-04-27T16:50:59.268Z,65.70
2019-04-27T16:53:30.182Z,68.70
2019-04-27T16:56:01.564Z,65.80
2019-04-27T16:58:28.520Z,68.00
2019-04-27T17:01:04.165Z,66.50
2019-04-27T17:03:25.448Z,68.20
2019-04-27T17:05:53.069Z,65.80
2019-04-27T17:08:22.199Z,66.30
2019-04-27T17:10:49.884Z,66.10
2019-04-27T17:13:18.627Z,66.70
2019-04-27T17:15:55.067Z,67.20
2019-04-27T17:18:30.936Z,66.60
2019-04-27T17:21:02.685Z,67.70
2019-04-27T17:23:31.147Z,68.20
2019-04-27T17:26:04.081Z,69.60
2019-04-27T17:28:28.648Z,69.00
2019-04-27T17:30:56.368Z,67.70
2019-04-27T17:33:25.547Z,68.60
2019-04-27T17:35:53.094Z,69.00
2019-04-27T17:38:20.628Z,68.50
2019-04-27T17:40:48.776Z,68.00
2019-04-27T17:43:18.738Z,68.20
2019-04-27T17:45:48.461Z,68.40
2019-04-27T17:48:15.630Z,67.40
2019-04-27T17:50:43.345Z,66.10
2019-04-27T17:53:10.885Z,66.40
2019-04-27T17:55:38.472Z,66.80
2019-04-27T17:58:06.655Z,65.30
2019-04-27T18:00:43.175Z,64.20
2019-04-27T18:03:03.893Z,65.30
2019-04-27T18:05:31.668Z,65.00
2019-04-27T18:07:59.204Z,65.20
2019-04-27T18:10:28.167Z,65.50
2019-04-27T18:12:55.873Z,65.50
2019-04-27T18:15:23.405Z,65.10
2019-04-27T18:17:53.451Z,64.30
2019-04-27T18:23:15.208Z,65.30
2019-04-27T18:25:48.147Z,65.30
2019-04-27T18:28:19.007Z,66.10
2019-04-27T18:30:53.860Z,66.90
2019-04-27T18:33:21.407Z,67.70
2019-04-27T18:35:49.179Z,67.80
2019-04-27T18:38:16.864Z,67.90
2019-04-27T18:40:44.400Z,68.10
2019-04-27T18:43:12.472Z,68.40
2019-04-27T18:45:45.046Z,68.20
2019-04-27T18:48:13.851Z,68.40
2019-04-27T18:50:43.506Z,69.40
2019-04-27T18:53:24.321Z,68.90
2019-04-27T18:55:57.487Z,70.00
2019-04-27T18:58:20.689Z,70.00
2019-04-27T19:00:48.461Z,70.30
2019-04-27T19:03:16.060Z,69.20
2019-04-27T19:05:43.599Z,69.60
2019-04-27T19:08:11.200Z,70.40
2019-04-27T19:10:38.733Z,70.40
2019-04-27T19:13:06.288Z,70.80
2019-04-27T19:15:33.876Z,70.40
2019-04-27T19:18:01.431Z,71.10
2019-04-27T19:20:29.273Z,69.60
2019-04-27T19:22:57.133Z,70.10
2019-04-27T19:25:26.314Z,70.00
2019-04-27T19:27:58.315Z,70.70
2019-04-27T19:30:30.304Z,70.00
2019-04-27T19:32:57.844Z,70.60
2019-04-27T19:35:25.412Z,70.30
2019-04-27T19:37:52.944Z,71.40
2019-04-27T19:40:20.489Z,72.80
2019-04-27T19:42:48.674Z,73.50
2019-04-27T19:45:16.641Z,72.50
2019-04-27T19:47:44.182Z,73.60
2019-04-27T19:50:11.837Z,72.90
2019-04-27T19:52:39.405Z,73.70
2019-04-27T19:55:08.542Z,74.60
2019-04-27T19:57:38.537Z,75.20
2019-04-27T20:00:09.304Z,77.40
2019-04-27T20:02:38.009Z,78.30
2019-04-27T20:05:06.129Z,77.80
2019-04-27T20:07:33.952Z,79.10
2019-04-27T20:10:01.778Z,77.30
2019-04-27T20:12:31.174Z,79.50
2019-04-27T20:14:58.639Z,77.10
2019-04-27T20:17:26.821Z,77.10
2019-04-27T20:19:54.552Z,79.20
2019-04-27T20:22:24.277Z,78.40
2019-04-27T20:24:51.516Z,79.30
2019-04-27T20:27:21.059Z,80.60
2019-04-27T20:29:48.373Z,81.00
2019-04-27T20:32:15.900Z,81.60
2019-04-27T20:34:43.537Z,82.20
2019-04-27T20:37:11.892Z,81.90
2019-04-27T20:39:42.556Z,80.50
2019-04-27T20:42:10.880Z,80.70
2019-04-27T20:44:38.127Z,80.30
2019-04-27T20:47:05.684Z,79.00
2019-04-27T20:49:33.228Z,79.70
2019-04-27T20:52:02.488Z,80.70
2019-04-27T20:54:30.657Z,81.20
2019-04-27T20:57:01.440Z,80.40
2019-04-27T20:59:28.909Z,79.60
2019-04-27T21:01:58.329Z,79.50
2019-04-27T21:04:30.866Z,78.20
2019-04-27T21:07:06.513Z,79.70
2019-04-27T21:09:34.056Z,80.30
2019-04-27T21:12:01.608Z,80.60
2019-04-27T21:14:29.439Z,81.70
2019-04-27T21:16:58.760Z,80.90
2019-04-27T21:19:26.390Z,80.50
2019-04-27T21:21:53.941Z,79.50
2019-04-27T21:24:22.820Z,80.50
2019-04-27T21:26:51.313Z,80.20
2019-04-27T21:29:20.767Z,79.30
2019-04-27T21:31:48.351Z,80.40
2019-04-27T21:34:15.931Z,79.70
2019-04-27T21:36:43.498Z,81.90
2019-04-27T21:39:11.590Z,80.90
2019-04-27T21:41:41.244Z,81.30
2019-04-27T21:44:08.889Z,81.00
2019-04-27T21:46:36.432Z,81.50
2019-04-27T21:49:03.960Z,81.80
2019-04-27T21:51:32.972Z,82.80
2019-04-27T21:54:02.152Z,82.90
2019-04-27T21:56:31.202Z,81.50
2019-04-27T21:59:00.902Z,81.10
2019-04-27T22:01:31.686Z,82.20
2019-04-27T22:04:01.084Z,81.20
2019-04-27T22:06:28.725Z,81.30
2019-04-27T22:08:56.268Z,81.70
2019-04-27T22:11:24.046Z,81.40
2019-04-27T22:13:51.580Z,82.00
2019-04-27T22:16:21.103Z,83.10
2019-04-27T22:18:48.373Z,82.90
2019-04-27T22:21:15.917Z,82.50
2019-04-27T22:23:50.936Z,81.50
2019-04-27T22:26:18.696Z,81.00
2019-04-27T22:28:49.462Z,81.90
2019-04-27T22:31:15.533Z,82.60
2019-04-27T22:33:43.097Z,83.10
2019-04-27T22:36:10.980Z,84.50
2019-04-27T22:38:38.844Z,83.80
2019-04-27T22:41:08.010Z,84.20
2019-04-27T22:43:37.172Z,83.00
2019-04-27T22:46:06.356Z,83.40
2019-04-27T22:48:33.891Z,81.50
2019-04-27T22:51:01.748Z,82.30
2019-04-27T22:53:30.609Z,81.80
2019-04-27T22:56:18.362Z,81.80
2019-04-27T22:58:57.458Z,81.60
2019-04-27T23:01:24.332Z,82.00
2019-04-27T23:03:53.504Z,82.40
2019-04-27T23:06:21.611Z,81.30
2019-04-27T23:08:49.231Z,81.30
2019-04-27T23:11:16.781Z,81.20
2019-04-27T23:13:45.096Z,81.50
2019-04-27T23:16:14.281Z,80.10
2019-04-27T23:18:42.273Z,81.40
2019-04-27T23:21:11.687Z,83.00
2019-04-27T23:23:41.202Z,82.30
2019-04-27T23:26:08.431Z,81.10
2019-04-27T23:28:35.972Z,81.20
2019-04-27T23:31:05.144Z,81.30
2019-04-27T23:33:32.896Z,80.80
2019-04-27T23:36:01.580Z,79.90
2019-04-27T23:38:30.970Z,79.70
2019-04-27T23:40:58.656Z,80.40
2019-04-27T23:43:26.191Z,80.90
2019-04-27T23:45:54.584Z,81.10
2019-04-27T23:48:22.676Z,81.00
2019-04-27T23:50:53.134Z,81.10
2019-04-27T23:53:22.044Z,82.00
2019-04-27T23:55:49.615Z,83.10
2019-04-27T23:58:17.146Z,82.10
